Flugplatz Paderborn-Haxterberg

Für EDLR sind keine METAR/TAF Berichte vorhanden.
Es werden die Flugwettermeldungen vom Flugplatz Paderborn Lippstadt in 13 km Entfernung angezeigt.

Bericht für EDLP

vom 18.09. um 22:50 UTC

Wind 5 kt aus 110°

Sichtweite 10 km oder mehr

gute Sicht, keine Wolken < 5000 ft, keine CB, keine Wettererscheinungen (CAVOK)

Temperatur 12.0°C

Taupunkt 2.0°C

Luftfeuchtigkeit 50%

Luftdruck 1023 hPa

EDLP 182250Z 11005KT CAVOK 12/02 Q1023

Prognose für EDLP

vom 18.09. um 17:00 UTC

Am 18.09. zwischen 18:00 UTC und 18:00 UTC

Wind 11 kt aus 90°

Sichtweite 10 km oder mehr

keine signifikanten Wettererscheinungen

keine Wolken


Am 18.09. zwischen 18:00 und 21:00 UTC übergehend zu

Wind 6 kt aus 120°

Sichtweite 10 km oder mehr

keine signifikanten Wettererscheinungen

keine Wolken


Zwischen 07:00 und 10:00 UTC übergehend zu

Wind 11 kt aus 110°

Sichtweite 10 km oder mehr

keine signifikanten Wettererscheinungen

keine Wolken

TAF EDLP 181700Z 1818/1918 09011KT CAVOK BECMG 1818/1821 12006KT BECMG 1907/1910 11011KT
Impressum